Rovinari 25 — YP3087 — position and weather

sailwx.info

Track history (hours):
 
Tides and Currents Weather Stations Pressure Air Temp Water Temp Dewpoint Dewpoint Depression Visibility Wind Speed Wind Dir Waves Ship Positions

Rovinari 25

Last reported at 2017-Oct-19 13:00 UTC. Time now 2017-Oct-19 13:10 UTC.
Position N 44°07' E 028°39'.

Length 21 m.

Type: Port tender. MMSI: 264163087.

Date/timePositionNaut miles runAvg speedWind from/ knotsBaromVisibWave heightAir tempDewpointWater temp
2017-Oct-19 13:00N 44°07' E 028°39'0 0.9
2017-Oct-19 12:30N 44°07' E 028°39'1 2.9
2017-Oct-19 12:00N 44°06' E 028°40'1 2.8
2017-Oct-19 11:30N 44°07' E 028°41'2 4.5
2017-Oct-19 11:00N 44°09' E 028°39'0 0.2
2017-Oct-19 10:25N 44°09' E 028°39'0 0.4
2017-Oct-19 09:59N 44°09' E 028°39'0 0.6
2017-Oct-19 09:30N 44°09' E 028°39'1 2.2
2017-Oct-19 09:00N 44°09' E 028°40'3 4.9
2017-Oct-19 08:29N 44°06' E 028°39'0 0.0
2017-Oct-19 07:59N 44°06' E 028°39'0 0.0
2017-Oct-19 07:20N 44°06' E 028°39'0 0.0
2017-Oct-19 06:56N 44°06' E 028°39'0 0.0
2017-Oct-19 06:29N 44°06' E 028°39'0 0.0
2017-Oct-19 05:59N 44°06' E 028°39'0 0.0
2017-Oct-19 05:26N 44°06' E 028°39'0 0.0
2017-Oct-19 04:59N 44°06' E 028°39'0 0.0
2017-Oct-19 04:29N 44°06' E 028°39'0 0.0
2017-Oct-19 03:59N 44°06' E 028°39'0 0.0
2017-Oct-19 03:29N 44°06' E 028°39'0 0.0
2017-Oct-19 02:56N 44°06' E 028°39'0 0.0
2017-Oct-19 02:29N 44°06' E 028°39'0 0.0
2017-Oct-19 01:59N 44°06' E 028°39'0 0.0
2017-Oct-19 01:29N 44°06' E 028°39'0 0.0
2017-Oct-19 00:59N 44°06' E 028°39'1 2.1
2017-Oct-19 00:30N 44°07' E 028°39'1 1.1
2017-Oct-19 00:00N 44°07' E 028°39'1 2.6
2017-Oct-18 23:30N 44°06' E 028°40'0 0.5
2017-Oct-18 22:58N 44°06' E 028°40'1 1.8
2017-Oct-18 22:30N 44°07' E 028°40'1 2.0
2017-Oct-18 21:58N 44°07' E 028°39'0 0.3
2017-Oct-18 21:28N 44°07' E 028°39'1 1.9
2017-Oct-18 21:00N 44°08' E 028°39'1 1.9
2017-Oct-18 20:30N 44°09' E 028°39'0 0.6
2017-Oct-18 20:00N 44°09' E 028°39'0 0.0
2017-Oct-18 19:30N 44°09' E 028°39'1 1.9
2017-Oct-18 19:00N 44°10' E 028°39'1 2.2
2017-Oct-18 18:30N 44°09' E 028°39'1 2.0
2017-Oct-18 17:57N 44°10' E 028°39'1 1.2
2017-Oct-18 17:30N 44°10' E 028°39'0 0.4
2017-Oct-18 16:58N 44°10' E 028°39'1 1.2
2017-Oct-18 16:30N 44°09' E 028°39'1 1.9
2017-Oct-18 15:58N 44°10' E 028°39'1 1.2
2017-Oct-18 15:29N 44°10' E 028°39'1 2.7
2017-Oct-18 15:00N 44°09' E 028°40'2 1.8
2017-Oct-18 13:59N 44°07' E 028°39'1 1.4
2017-Oct-18 13:30N 44°06' E 028°39'0 0.0
2017-Oct-18 13:00N 44°06' E 028°39'0 0.0
2017-Oct-18 12:30N 44°06' E 028°39'0 0.0
2017-Oct-18 12:00N 44°06' E 028°39'0 0.0
2017-Oct-18 11:30N 44°06' E 028°39'0 0.0
2017-Oct-18 11:00N 44°06' E 028°39'0 0.0
2017-Oct-18 10:30N 44°06' E 028°39'0 0.0
2017-Oct-18 09:57N 44°06' E 028°39'0 0.0
2017-Oct-18 09:30N 44°06' E 028°39'0 0.0
2017-Oct-18 09:00N 44°06' E 028°39'0 0.0
2017-Oct-18 08:30N 44°06' E 028°39'0 0.0
2017-Oct-18 08:00N 44°06' E 028°39'0 0.0
2017-Oct-18 07:30N 44°06' E 028°39'0 0.0
2017-Oct-18 07:00N 44°06' E 028°39'0 0.0
2017-Oct-18 06:30N 44°06' E 028°39'0 0.0
2017-Oct-18 05:57N 44°06' E 028°39'0 0.0
2017-Oct-18 05:30N 44°06' E 028°39'0 0.0
2017-Oct-18 04:57N 44°06' E 028°39'0 0.0
2017-Oct-18 04:30N 44°06' E 028°39'0 0.0
2017-Oct-18 03:54N 44°06' E 028°39'0 0.0
2017-Oct-18 03:30N 44°06' E 028°39'0 0.0
2017-Oct-18 03:00N 44°06' E 028°39'0 0.0
2017-Oct-18 02:30N 44°06' E 028°39'0 0.0
2017-Oct-18 02:00N 44°06' E 028°39'0 0.0
2017-Oct-18 01:30N 44°06' E 028°39'2 3.5
2017-Oct-18 01:00N 44°08' E 028°39'2 3.1
2017-Oct-18 00:30N 44°10' E 028°39'1 1.1
2017-Oct-18 00:00N 44°10' E 028°39'1 1.0
2017-Oct-17 23:23N 44°10' E 028°39'1 2.8
2017-Oct-17 23:00N 44°09' E 028°40'1 2.7
2017-Oct-17 22:30N 44°08' E 028°39'1 2.8
2017-Oct-17 22:00N 44°06' E 028°39'1 2.3
2017-Oct-17 21:31N 44°08' E 028°39'1 2.8
2017-Oct-17 21:00N 44°09' E 028°39'0 0.6
2017-Oct-17 20:30N 44°09' E 028°39'1 1.7
2017-Oct-17 20:00N 44°09' E 028°40'2 2.8
2017-Oct-17 19:28N 44°07' E 028°39'1 1.0
2017-Oct-17 18:58N 44°08' E 028°39'1 3.0
2017-Oct-17 18:30N 44°09' E 028°40'1 1.5
2017-Oct-17 17:58N 44°10' E 028°39'1 2.4
2017-Oct-17 17:30N 44°09' E 028°39'1 1.1
2017-Oct-17 17:00N 44°09' E 028°40'2 5.0
2017-Oct-17 16:30N 44°06' E 028°39'0 0.1
2017-Oct-17 16:00N 44°06' E 028°39'2 4.7
2017-Oct-17 15:30N 44°09' E 028°40'1 2.5
2017-Oct-17 15:00N 44°10' E 028°39'0 0.7
2017-Oct-17 14:25N 44°10' E 028°39'0 0.6
2017-Oct-17 14:00N 44°09' E 028°39'1 2.6
2017-Oct-17 13:30N 44°08' E 028°40'1 3.0
2017-Oct-17 13:00N 44°07' E 028°41'1 1.6
2017-Oct-17 12:30N 44°07' E 028°40'1 1.9
2017-Oct-17 11:59N 44°06' E 028°39'1 1.8
2017-Oct-17 11:31N 44°07' E 028°39'2 3.9
2017-Oct-17 11:00N 44°09' E 028°40'0 0.4
2017-Oct-17 10:30N 44°09' E 028°39'0 0.4
2017-Oct-17 10:00N 44°09' E 028°39'0 0.3
2017-Oct-17 09:28N 44°09' E 028°39'0 0.7
2017-Oct-17 09:01N 44°09' E 028°39'3 5.1
2017-Oct-17 08:31N 44°07' E 028°41'1 2.1
2017-Oct-17 07:57N 44°06' E 028°40'1 2.9
2017-Oct-17 07:29N 44°07' E 028°39'0 1.0
2017-Oct-17 07:00N 44°07' E 028°39'1 1.5
2017-Oct-17 06:30N 44°08' E 028°39'1 2.5
2017-Oct-17 06:00N 44°09' E 028°39'1 2.2
2017-Oct-17 05:30N 44°08' E 028°39'2 3.4
2017-Oct-17 05:00N 44°06' E 028°39'0 0.0
2017-Oct-17 04:30N 44°06' E 028°39'0 0.0
2017-Oct-17 04:00N 44°06' E 028°39'0 0.0
2017-Oct-17 03:15N 44°06' E 028°39'0 0.0
2017-Oct-17 03:00N 44°06' E 028°39'0 0.0
2017-Oct-17 02:30N 44°06' E 028°39'0 0.0
2017-Oct-17 02:00N 44°06' E 028°39'0 0.0
2017-Oct-17 01:30N 44°06' E 028°39'0 0.0
2017-Oct-17 01:00N 44°06' E 028°39'0 0.0
2017-Oct-17 00:30N 44°06' E 028°39'0 0.0
2017-Oct-17 00:00N 44°06' E 028°39'0 0.0
2017-Oct-16 23:30N 44°06' E 028°39'0 0.0
2017-Oct-16 23:00N 44°06' E 028°39'0 0.0
2017-Oct-16 22:30N 44°06' E 028°39'0 0.0
2017-Oct-16 22:00N 44°06' E 028°39'0 0.0
2017-Oct-16 21:30N 44°06' E 028°39'0 0.0
2017-Oct-16 21:00N 44°06' E 028°39'0 0.0
2017-Oct-16 20:30N 44°06' E 028°39'0 0.0
2017-Oct-16 20:00N 44°06' E 028°39'0 0.0
2017-Oct-16 19:30N 44°06' E 028°39'1 1.9
2017-Oct-16 19:00N 44°07' E 028°39'1 2.8
2017-Oct-16 18:30N 44°09' E 028°40'1 2.1
2017-Oct-16 18:00N 44°09' E 028°39'0 0.6
2017-Oct-16 17:28N 44°10' E 028°39'1 2.7
2017-Oct-16 17:00N 44°09' E 028°40'1 2.6
2017-Oct-16 16:29N 44°07' E 028°39'1 1.1
2017-Oct-16 15:59N 44°07' E 028°39'0 0.0
2017-Oct-16 15:29N 44°07' E 028°39'0 0.1
2017-Oct-16 15:00N 44°07' E 028°39'2 3.6
2017-Oct-16 14:30N 44°09' E 028°40'1 1.1
2017-Oct-16 13:30N 44°10' E 028°39'0 0.0
2017-Oct-16 13:00N 44°10' E 028°39'0 0.2
2017-Oct-16 12:29N 44°10' E 028°39'0 0.4
2017-Oct-16 11:59N 44°10' E 028°39'1 2.5
2017-Oct-16 11:30N 44°09' E 028°40'2 4.2
2017-Oct-16 11:00N 44°07' E 028°39'0 0.6
2017-Oct-16 10:30N 44°07' E 028°39'0 0.4
2017-Oct-16 09:58N 44°06' E 028°39'0 0.0
2017-Oct-16 09:25N 44°06' E 028°39'0 0.9
2017-Oct-16 09:00N 44°07' E 028°39'1 1.1
2017-Oct-16 08:30N 44°07' E 028°39'1 1.2
2017-Oct-16 08:00N 44°06' E 028°39'0 0.0
2017-Oct-16 07:30N 44°06' E 028°39'1 1.4
2017-Oct-16 07:00N 44°07' E 028°39'0 0.1
2017-Oct-16 06:30N 44°07' E 028°39'1 1.4
2017-Oct-16 05:59N 44°06' E 028°39'0 0.0
2017-Oct-16 05:30N 44°06' E 028°39'0 0.4
2017-Oct-16 05:00N 44°06' E 028°39'1 1.2
2017-Oct-16 04:25N 44°07' E 028°39'1 1.3
2017-Oct-16 04:00N 44°06' E 028°39'0 0.0
2017-Oct-16 03:30N 44°06' E 028°39'0 0.0
2017-Oct-16 03:00N 44°06' E 028°39'0 0.0
2017-Oct-16 02:30N 44°06' E 028°39'1 1.0
2017-Oct-16 01:59N 44°07' E 028°39'1 2.4
2017-Oct-16 01:30N 44°06' E 028°40'0 0.4
2017-Oct-16 00:58N 44°06' E 028°40'1 2.0
2017-Oct-16 00:30N 44°07' E 028°39'1 1.1
2017-Oct-16 00:00N 44°07' E 028°39'0 0.9
2017-Oct-15 23:31N 44°08' E 028°39'0 0.7
2017-Oct-15 23:00N 44°08' E 028°39'1 2.7
2017-Oct-15 22:29N 44°06' E 028°39'0 0.0
2017-Oct-15 21:59N 44°06' E 028°39'0 1.0
2017-Oct-15 21:30N 44°07' E 028°39'1 1.8
2017-Oct-15 21:00N 44°08' E 028°39'2 3.1
2017-Oct-15 20:30N 44°09' E 028°40'1 1.4
2017-Oct-15 19:58N 44°10' E 028°39'1 1.4
2017-Oct-15 19:29N 44°09' E 028°39'0 0.0
2017-Oct-15 18:59N 44°09' E 028°39'0 0.0
2017-Oct-15 18:26N 44°09' E 028°39'0 0.0
2017-Oct-15 17:59N 44°09' E 028°39'0 0.0
2017-Oct-15 17:29N 44°09' E 028°39'0 0.0
2017-Oct-15 16:59N 44°09' E 028°39'0 0.0
2017-Oct-15 16:29N 44°09' E 028°39'0 0.6
2017-Oct-15 16:00N 44°09' E 028°39'1 1.4
2017-Oct-15 15:30N 44°09' E 028°40'1 2.1
2017-Oct-15 15:00N 44°08' E 028°39'3 2.5
2017-Oct-15 13:58N 44°06' E 028°39'2 3.6
2017-Oct-15 13:30N 44°07' E 028°39'2 3.7
2017-Oct-15 13:01N 44°09' E 028°39'1 1.4
2017-Oct-15 12:31N 44°09' E 028°40'2 4.8
2017-Oct-15 12:01N 44°07' E 028°39'0 0.1
2017-Oct-15 11:30N 44°06' E 028°39'0 0.0
2017-Oct-15 11:00N 44°06' E 028°39'1 1.3
2017-Oct-15 10:31N 44°07' E 028°39'0 0.4
2017-Oct-15 10:00N 44°07' E 028°39'2 3.3
2017-Oct-15 09:30N 44°09' E 028°40'1 1.9
2017-Oct-15 08:59N 44°09' E 028°39'0 1.0
2017-Oct-15 08:30N 44°09' E 028°39'2 4.0
2017-Oct-15 08:00N 44°07' E 028°39'1 1.8
2017-Oct-15 07:30N 44°06' E 028°39'0 0.0
2017-Oct-15 06:58N 44°06' E 028°39'1 2.2
2017-Oct-15 06:30N 44°07' E 028°39'2 3.5
2017-Oct-15 05:59N 44°09' E 028°39'0 0.0
2017-Oct-15 05:29N 44°09' E 028°39'0 0.0
2017-Oct-15 04:59N 44°09' E 028°39'0 0.0
2017-Oct-15 04:29N 44°09' E 028°39'0 0.0
2017-Oct-15 03:59N 44°09' E 028°39'0 0.0
2017-Oct-15 03:29N 44°09' E 028°39'0 0.0
2017-Oct-15 02:59N 44°09' E 028°39'0 0.0
2017-Oct-15 02:29N 44°09' E 028°39'0 0.0
2017-Oct-15 01:59N 44°09' E 028°39'0 0.0
2017-Oct-15 01:29N 44°09' E 028°39'0 0.0
2017-Oct-15 00:59N 44°09' E 028°39'0 0.0
2017-Oct-15 00:29N 44°09' E 028°39'0 0.0
2017-Oct-14 23:59N 44°09' E 028°39'1 1.2
2017-Oct-14 23:29N 44°10' E 028°39'1 2.8
2017-Oct-14 23:00N 44°09' E 028°40'2 3.4
2017-Oct-14 22:30N 44°07' E 028°39'0 0.3
2017-Oct-14 22:00N 44°07' E 028°39'1 1.3
2017-Oct-14 21:30N 44°08' E 028°39'1 2.8
2017-Oct-14 21:00N 44°09' E 028°40'1 1.4
2017-Oct-14 20:30N 44°10' E 028°39'1 1.3
2017-Oct-14 19:56N 44°09' E 028°39'0 0.1
2017-Oct-14 19:30N 44°09' E 028°39'0 0.4
2017-Oct-14 19:00N 44°09' E 028°39'1 2.0
2017-Oct-14 18:30N 44°09' E 028°40'2 4.0
2017-Oct-14 17:58N 44°07' E 028°39'1 3.2
2017-Oct-14 17:30N 44°08' E 028°39'1 1.8
2017-Oct-14 17:00N 44°07' E 028°39'0 0.4
2017-Oct-14 16:28N 44°07' E 028°39'0 0.2
2017-Oct-14 15:58N 44°07' E 028°39'2 3.7
2017-Oct-14 15:30N 44°09' E 028°40'1 1.5
2017-Oct-14 14:58N 44°09' E 028°39'0 0.3
2017-Oct-14 14:30N 44°09' E 028°39'0 0.6
2017-Oct-14 14:00N 44°09' E 028°39'0 0.2
2017-Oct-14 13:30N 44°09' E 028°39'0 0.0
2017-Oct-14 13:00N 44°09' E 028°39'0 0.0
2017-Oct-14 12:27N 44°09' E 028°39'0 0.0
2017-Oct-14 12:00N 44°09' E 028°39'0 0.0
2017-Oct-14 11:27N 44°09' E 028°39'0 0.7
2017-Oct-14 10:58N 44°09' E 028°39'0 0.4
2017-Oct-14 10:29N 44°09' E 028°39'0 0.1
2017-Oct-14 10:00N 44°09' E 028°39'1 1.5
2017-Oct-14 09:30N 44°10' E 028°39'1 2.3
2017-Oct-14 09:00N 44°09' E 028°40'1 2.6
2017-Oct-14 08:29N 44°07' E 028°39'0 1.0
2017-Oct-14 08:00N 44°08' E 028°39'1 1.5
2017-Oct-14 07:30N 44°07' E 028°39'1 2.3
2017-Oct-14 07:00N 44°08' E 028°39'0 0.4
2017-Oct-14 06:30N 44°08' E 028°39'1 2.1
2017-Oct-14 06:00N 44°09' E 028°39'0 0.0
2017-Oct-14 05:30N 44°09' E 028°39'0 0.8
2017-Oct-14 04:55N 44°10' E 028°39'0 0.7
2017-Oct-14 04:14N 44°09' E 028°39'0 0.0
2017-Oct-14 03:59N 44°09' E 028°39'0 0.0
2017-Oct-14 03:29N 44°09' E 028°39'0 0.0
2017-Oct-14 02:59N 44°09' E 028°39'0 0.0
2017-Oct-14 02:29N 44°09' E 028°39'0 0.0
2017-Oct-14 02:00N 44°09' E 028°39'1 1.2
2017-Oct-14 01:29N 44°10' E 028°39'0 0.0
2017-Oct-14 00:59N 44°10' E 028°39'1 1.8
2017-Oct-14 00:30N 44°09' E 028°40'2 3.0
2017-Oct-14 00:00N 44°08' E 028°41'1 3.0
2017-Oct-13 23:30N 44°06' E 028°41'1 1.9
2017-Oct-13 23:00N 44°07' E 028°40'1 2.3
2017-Oct-13 22:30N 44°07' E 028°39'1 1.8
2017-Oct-13 22:00N 44°08' E 028°39'0 0.4
2017-Oct-13 21:30N 44°08' E 028°39'1 1.7
2017-Oct-13 21:00N 44°09' E 028°40'1 1.4
2017-Oct-13 20:27N 44°09' E 028°39'0 0.7
2017-Oct-13 20:00N 44°09' E 028°39'1 1.5
2017-Oct-13 19:29N 44°08' E 028°39'1 2.0
2017-Oct-13 19:00N 44°07' E 028°39'1 1.8
2017-Oct-13 18:30N 44°06' E 028°39'0 0.0
2017-Oct-13 18:00N 44°06' E 028°39'0 0.0
2017-Oct-13 17:30N 44°06' E 028°39'0 0.0
2017-Oct-13 17:00N 44°06' E 028°39'0 0.0
2017-Oct-13 16:30N 44°06' E 028°39'0 0.0
2017-Oct-13 16:00N 44°06' E 028°39'0 0.1
2017-Oct-13 15:28N 44°06' E 028°39'1 1.9
2017-Oct-13 15:00N 44°06' E 028°39'1 1.4
2017-Oct-13 14:30N 44°06' E 028°39'2 3.9
2017-Oct-13 14:00N 44°08' E 028°39'1 1.5
2017-Oct-13 13:30N 44°09' E 028°40'0 0.2
2017-Oct-13 13:00N 44°09' E 028°39'1 1.0
2017-Oct-13 12:30N 44°08' E 028°39'2 4.2
2017-Oct-13 11:58N 44°06' E 028°39'0 0.0
2017-Oct-13 11:30N 44°06' E 028°39'2 3.0
2017-Oct-13 11:00N 44°08' E 028°39'2 3.2
2017-Oct-13 10:30N 44°09' E 028°40'0 0.7
2017-Oct-13 10:00N 44°10' E 028°39'2 4.4
2017-Oct-13 09:30N 44°07' E 028°39'0 0.4
2017-Oct-13 09:01N 44°08' E 028°39'1 1.6
2017-Oct-13 08:29N 44°08' E 028°39'1 1.8
2017-Oct-13 08:00N 44°09' E 028°40'1 1.0
2017-Oct-13 07:28N 44°09' E 028°39'0 0.5
2017-Oct-13 06:59N 44°09' E 028°39'1 2.8
2017-Oct-13 06:30N 44°08' E 028°39'0 1.0
2017-Oct-13 06:00N 44°07' E 028°39'1 1.7
2017-Oct-13 05:29N 44°07' E 028°39'0 0.0
2017-Oct-13 04:53N 44°07' E 028°39'0 0.0
2017-Oct-13 04:26N 44°07' E 028°39'0 0.0
2017-Oct-13 03:56N 44°07' E 028°39'0 0.0
2017-Oct-13 03:26N 44°07' E 028°39'0 0.0
2017-Oct-13 02:59N 44°07' E 028°39'2 3.7
2017-Oct-13 02:29N 44°08' E 028°39'1 1.7
2017-Oct-13 02:00N 44°08' E 028°39'1 1.5
2017-Oct-13 01:30N 44°07' E 028°39'0 0.5
2017-Oct-13 01:00N 44°06' E 028°39'0 0.0
2017-Oct-13 00:29N 44°06' E 028°39'1 1.1
2017-Oct-13 00:00N 44°07' E 028°39'2 3.0
2017-Oct-12 23:30N 44°08' E 028°39'1 2.0
2017-Oct-12 23:00N 44°09' E 028°39'1 1.9
2017-Oct-12 22:30N 44°09' E 028°40'2 4.6
2017-Oct-12 21:59N 44°06' E 028°39'0 0.0
2017-Oct-12 21:29N 44°06' E 028°39'0 0.0
2017-Oct-12 20:56N 44°06' E 028°39'0 0.0
2017-Oct-12 20:29N 44°06' E 028°39'0 0.0
2017-Oct-12 19:56N 44°07' E 028°39'0 0.0
2017-Oct-12 19:28N 44°06' E 028°39'1 2.5
2017-Oct-12 18:58N 44°08' E 028°39'0 0.3
2017-Oct-12 18:29N 44°08' E 028°39'1 1.5
2017-Oct-12 18:00N 44°08' E 028°39'1 1.1
2017-Oct-12 17:30N 44°08' E 028°39'0 0.5
2017-Oct-12 16:58N 44°07' E 028°39'2 3.8
2017-Oct-12 16:30N 44°09' E 028°40'1 1.3
2017-Oct-12 15:57N 44°09' E 028°39'1 2.3
2017-Oct-12 15:30N 44°08' E 028°39'2 2.9
2017-Oct-12 14:58N 44°06' E 028°39'0 0.2
2017-Oct-12 14:28N 44°06' E 028°39'2 4.7
2017-Oct-12 14:00N 44°08' E 028°39'1 1.1
2017-Oct-12 13:30N 44°09' E 028°39'0 0.8
2017-Oct-12 12:59N 44°09' E 028°39'1 1.3
2017-Oct-12 12:30N 44°09' E 028°40'2 3.7
2017-Oct-12 11:54N 44°06' E 028°39'0 0.0
2017-Oct-12 11:30N 44°06' E 028°39'0 0.0
2017-Oct-12 10:57N 44°06' E 028°39'0 0.0
2017-Oct-12 10:30N 44°06' E 028°39'0 0.0
2017-Oct-12 10:00N 44°06' E 028°39'0 0.0
2017-Oct-12 09:30N 44°06' E 028°39'0 0.0
2017-Oct-12 09:00N 44°06' E 028°39'0 0.0
2017-Oct-12 08:30N 44°06' E 028°39'0 0.0
2017-Oct-12 08:00N 44°06' E 028°39'0 0.0
2017-Oct-12 07:30N 44°06' E 028°39'1 1.1
2017-Oct-12 07:00N 44°07' E 028°39'0 0.9
2017-Oct-12 06:28N 44°06' E 028°40'1 1.6
2017-Oct-12 06:00N 44°07' E 028°39'1 1.2
2017-Oct-12 05:30N 44°07' E 028°39'1 1.2
2017-Oct-12 05:00N 44°06' E 028°39'0 0.0
2017-Oct-12 04:30N 44°06' E 028°39'0 0.0
2017-Oct-12 04:00N 44°06' E 028°39'0 0.0
2017-Oct-12 03:30N 44°06' E 028°39'1 1.6
2017-Oct-12 02:58N 44°07' E 028°39'1 2.6
2017-Oct-12 02:30N 44°08' E 028°39'1 1.2
2017-Oct-12 02:00N 44°09' E 028°39'0 0.2
2017-Oct-12 01:30N 44°09' E 028°39'1 1.2
2017-Oct-12 00:58N 44°10' E 028°39'1 2.3
2017-Oct-12 00:30N 44°09' E 028°40'2 3.1
2017-Oct-12 00:00N 44°08' E 028°41'1 2.7
2017-Oct-11 23:30N 44°06' E 028°41'1 1.3
2017-Oct-11 22:59N 44°06' E 028°40'0 0.0
2017-Oct-11 22:29N 44°06' E 028°40'0 1.0
2017-Oct-11 22:00N 44°06' E 028°41'3 5.1
2017-Oct-11 21:30N 44°09' E 028°40'1 1.2
2017-Oct-11 20:59N 44°09' E 028°39'0 0.2
2017-Oct-11 20:29N 44°09' E 028°39'0 0.6
2017-Oct-11 19:58N 44°09' E 028°39'0 0.5
2017-Oct-11 19:30N 44°09' E 028°39'0 0.2
2017-Oct-11 19:00N 44°09' E 028°39'0 0.0
2017-Oct-11 18:30N 44°09' E 028°39'0 0.0
2017-Oct-11 18:00N 44°09' E 028°39'0 0.0
2017-Oct-11 17:30N 44°09' E 028°39'0 0.0
2017-Oct-11 17:00N 44°09' E 028°39'0 0.0
2017-Oct-10 23:59N 44°09' E 028°39'1 1.3
2017-Oct-10 23:29N 44°10' E 028°39'1 1.6
2017-Oct-10 23:00N 44°09' E 028°40'1 2.5
2017-Oct-10 22:30N 44°08' E 028°39'2 3.3
2017-Oct-10 22:00N 44°06' E 028°39'1 1.3
2017-Oct-10 21:30N 44°07' E 028°39'1 1.3
2017-Oct-10 21:00N 44°07' E 028°39'1 2.9
2017-Oct-10 20:30N 44°08' E 028°39'1 2.2
2017-Oct-10 20:00N 44°09' E 028°39'0 0.0
2017-Oct-10 19:30N 44°09' E 028°39'0 0.0
2017-Oct-10 19:00N 44°09' E 028°39'0 0.5
2017-Oct-10 18:30N 44°09' E 028°39'1 1.5
2017-Oct-10 18:00N 44°09' E 028°40'2 4.2
2017-Oct-10 17:31N 44°07' E 028°39'1 1.1
2017-Oct-10 17:00N 44°07' E 028°39'0 0.1
2017-Oct-10 16:30N 44°07' E 028°39'1 1.2
2017-Oct-10 16:00N 44°07' E 028°39'0 0.4
2017-Oct-10 15:30N 44°07' E 028°39'0 0.2
2017-Oct-10 15:00N 44°07' E 028°39'0 0.1
2017-Oct-10 14:00N 44°07' E 028°39'1 1.5
2017-Oct-10 13:30N 44°06' E 028°39'1 1.9
2017-Oct-10 13:00N 44°07' E 028°39'1 2.9
2017-Oct-10 12:30N 44°09' E 028°40'1 2.4
2017-Oct-10 12:01N 44°10' E 028°39'1 1.7
2017-Oct-10 11:30N 44°09' E 028°39'1 1.0
2017-Oct-10 11:00N 44°09' E 028°39'1 1.1
2017-Oct-10 10:30N 44°10' E 028°39'1 2.6
2017-Oct-10 10:00N 44°09' E 028°39'1 2.4
2017-Oct-10 09:31N 44°07' E 028°39'1 1.0
2017-Oct-10 08:58N 44°07' E 028°39'1 1.3
2017-Oct-10 08:30N 44°06' E 028°39'1 1.9
2017-Oct-10 07:59N 44°07' E 028°39'1 1.4
2017-Oct-10 07:30N 44°07' E 028°39'1 1.2
2017-Oct-10 07:00N 44°07' E 028°39'1 1.1
2017-Oct-10 06:30N 44°06' E 028°40'1 2.6
2017-Oct-10 06:00N 44°07' E 028°39'1 2.6
2017-Oct-10 05:29N 44°06' E 028°40'2 3.7
2017-Oct-10 05:00N 44°08' E 028°41'2 2.7
2017-Oct-10 04:27N 44°09' E 028°39'1 1.1
2017-Oct-10 04:00N 44°09' E 028°40'1 2.8
2017-Oct-10 03:30N 44°07' E 028°39'0 0.5
2017-Oct-10 02:59N 44°07' E 028°39'1 1.0
2017-Oct-10 02:29N 44°06' E 028°39'0 0.0
2017-Oct-10 01:59N 44°06' E 028°39'0 0.3
2017-Oct-10 01:30N 44°07' E 028°39'1 1.9
2017-Oct-10 01:00N 44°06' E 028°40'1 2.7
2017-Oct-10 00:30N 44°07' E 028°39'2 3.4
2017-Oct-10 00:00N 44°09' E 028°40'0 0.4
2017-Oct-09 23:29N 44°09' E 028°39'0 0.0
2017-Oct-09 23:00N 44°09' E 028°39'1 2.5
2017-Oct-09 22:30N 44°08' E 028°39'1 1.3
2017-Oct-09 22:00N 44°07' E 028°39'0 0.6
2017-Oct-09 21:28N 44°07' E 028°39'0 1.1
2017-Oct-09 21:01N 44°07' E 028°39'0 0.6
2017-Oct-09 20:30N 44°07' E 028°39'1 1.3
2017-Oct-09 20:00N 44°06' E 028°39'0 0.0
2017-Oct-09 19:30N 44°06' E 028°39'0 0.0
2017-Oct-09 19:00N 44°06' E 028°39'0 0.0
2017-Oct-09 18:27N 44°06' E 028°39'0 0.0
2017-Oct-09 18:00N 44°06' E 028°39'1 1.1
2017-Oct-09 17:30N 44°07' E 028°39'1 1.2
2017-Oct-09 17:00N 44°08' E 028°39'0 0.0
2017-Oct-09 16:30N 44°08' E 028°39'0 0.0
2017-Oct-09 16:00N 44°08' E 028°39'0 0.0
2017-Oct-09 15:30N 44°08' E 028°39'0 0.0
2017-Oct-09 15:00N 44°08' E 028°39'1 2.0
2017-Oct-09 14:26N 44°06' E 028°39'1 2.5
2017-Oct-09 14:00N 44°06' E 028°40'1 2.7
2017-Oct-09 13:30N 44°07' E 028°39'0 0.8
2017-Oct-09 13:00N 44°08' E 028°39'  
Track history (hours):
 
Tides and Currents Weather Stations Pressure Air Temp Water Temp Dewpoint Dewpoint Depression Visibility Wind Speed Wind Dir Waves Ship Positions

Rovinari 25

Last reported at 2017-Oct-19 13:00 UTC. Time now 2017-Oct-19 13:10 UTC.
Position N 44°07' E 028°39'.

Length 21 m.

Type: Port tender. MMSI: 264163087.

Date/timePositionNaut miles runAvg speedWind from/ knotsBaromVisibWave heightAir tempDewpointWater temp
2017-Oct-19 13:00N 44°07' E 028°39'0 0.9
2017-Oct-19 12:30N 44°07' E 028°39'1 2.9
2017-Oct-19 12:00N 44°06' E 028°40'1 2.8
2017-Oct-19 11:30N 44°07' E 028°41'2 4.5
2017-Oct-19 11:00N 44°09' E 028°39'0 0.2
2017-Oct-19 10:25N 44°09' E 028°39'0 0.4
2017-Oct-19 09:59N 44°09' E 028°39'0 0.6
2017-Oct-19 09:30N 44°09' E 028°39'1 2.2
2017-Oct-19 09:00N 44°09' E 028°40'3 4.9
2017-Oct-19 08:29N 44°06' E 028°39'0 0.0
2017-Oct-19 07:59N 44°06' E 028°39'0 0.0
2017-Oct-19 07:20N 44°06' E 028°39'0 0.0
2017-Oct-19 06:56N 44°06' E 028°39'0 0.0
2017-Oct-19 06:29N 44°06' E 028°39'0 0.0
2017-Oct-19 05:59N 44°06' E 028°39'0 0.0
2017-Oct-19 05:26N 44°06' E 028°39'0 0.0
2017-Oct-19 04:59N 44°06' E 028°39'0 0.0
2017-Oct-19 04:29N 44°06' E 028°39'0 0.0
2017-Oct-19 03:59N 44°06' E 028°39'0 0.0
2017-Oct-19 03:29N 44°06' E 028°39'0 0.0
2017-Oct-19 02:56N 44°06' E 028°39'0 0.0
2017-Oct-19 02:29N 44°06' E 028°39'0 0.0
2017-Oct-19 01:59N 44°06' E 028°39'0 0.0
2017-Oct-19 01:29N 44°06' E 028°39'0 0.0
2017-Oct-19 00:59N 44°06' E 028°39'1 2.1
2017-Oct-19 00:30N 44°07' E 028°39'1 1.1
2017-Oct-19 00:00N 44°07' E 028°39'1 2.6
2017-Oct-18 23:30N 44°06' E 028°40'0 0.5
2017-Oct-18 22:58N 44°06' E 028°40'1 1.8
2017-Oct-18 22:30N 44°07' E 028°40'1 2.0
2017-Oct-18 21:58N 44°07' E 028°39'0 0.3
2017-Oct-18 21:28N 44°07' E 028°39'1 1.9
2017-Oct-18 21:00N 44°08' E 028°39'1 1.9
2017-Oct-18 20:30N 44°09' E 028°39'0 0.6
2017-Oct-18 20:00N 44°09' E 028°39'0 0.0
2017-Oct-18 19:30N 44°09' E 028°39'1 1.9
2017-Oct-18 19:00N 44°10' E 028°39'1 2.2
2017-Oct-18 18:30N 44°09' E 028°39'1 2.0
2017-Oct-18 17:57N 44°10' E 028°39'1 1.2
2017-Oct-18 17:30N 44°10' E 028°39'0 0.4
2017-Oct-18 16:58N 44°10' E 028°39'1 1.2
2017-Oct-18 16:30N 44°09' E 028°39'1 1.9
2017-Oct-18 15:58N 44°10' E 028°39'1 1.2
2017-Oct-18 15:29N 44°10' E 028°39'1 2.7
2017-Oct-18 15:00N 44°09' E 028°40'2 1.8
2017-Oct-18 13:59N 44°07' E 028°39'1 1.4
2017-Oct-18 13:30N 44°06' E 028°39'0 0.0
2017-Oct-18 13:00N 44°06' E 028°39'0 0.0
2017-Oct-18 12:30N 44°06' E 028°39'0 0.0
2017-Oct-18 12:00N 44°06' E 028°39'0 0.0
2017-Oct-18 11:30N 44°06' E 028°39'0 0.0
2017-Oct-18 11:00N 44°06' E 028°39'0 0.0
2017-Oct-18 10:30N 44°06' E 028°39'0 0.0
2017-Oct-18 09:57N 44°06' E 028°39'0 0.0
2017-Oct-18 09:30N 44°06' E 028°39'0 0.0
2017-Oct-18 09:00N 44°06' E 028°39'0 0.0
2017-Oct-18 08:30N 44°06' E 028°39'0 0.0
2017-Oct-18 08:00N 44°06' E 028°39'0 0.0
2017-Oct-18 07:30N 44°06' E 028°39'0 0.0
2017-Oct-18 07:00N 44°06' E 028°39'0 0.0
2017-Oct-18 06:30N 44°06' E 028°39'0 0.0
2017-Oct-18 05:57N 44°06' E 028°39'0 0.0
2017-Oct-18 05:30N 44°06' E 028°39'0 0.0
2017-Oct-18 04:57N 44°06' E 028°39'0 0.0
2017-Oct-18 04:30N 44°06' E 028°39'0 0.0
2017-Oct-18 03:54N 44°06' E 028°39'0 0.0
2017-Oct-18 03:30N 44°06' E 028°39'0 0.0
2017-Oct-18 03:00N 44°06' E 028°39'0 0.0
2017-Oct-18 02:30N 44°06' E 028°39'0 0.0
2017-Oct-18 02:00N 44°06' E 028°39'0 0.0
2017-Oct-18 01:30N 44°06' E 028°39'2 3.5
2017-Oct-18 01:00N 44°08' E 028°39'2 3.1
2017-Oct-18 00:30N 44°10' E 028°39'1 1.1
2017-Oct-18 00:00N 44°10' E 028°39'1 1.0
2017-Oct-17 23:23N 44°10' E 028°39'1 2.8
2017-Oct-17 23:00N 44°09' E 028°40'1 2.7
2017-Oct-17 22:30N 44°08' E 028°39'1 2.8
2017-Oct-17 22:00N 44°06' E 028°39'1 2.3
2017-Oct-17 21:31N 44°08' E 028°39'1 2.8
2017-Oct-17 21:00N 44°09' E 028°39'0 0.6
2017-Oct-17 20:30N 44°09' E 028°39'1 1.7
2017-Oct-17 20:00N 44°09' E 028°40'2 2.8
2017-Oct-17 19:28N 44°07' E 028°39'1 1.0
2017-Oct-17 18:58N 44°08' E 028°39'1 3.0
2017-Oct-17 18:30N 44°09' E 028°40'1 1.5
2017-Oct-17 17:58N 44°10' E 028°39'1 2.4
2017-Oct-17 17:30N 44°09' E 028°39'1 1.1
2017-Oct-17 17:00N 44°09' E 028°40'2 5.0
2017-Oct-17 16:30N 44°06' E 028°39'0 0.1
2017-Oct-17 16:00N 44°06' E 028°39'2 4.7
2017-Oct-17 15:30N 44°09' E 028°40'1 2.5
2017-Oct-17 15:00N 44°10' E 028°39'0 0.7
2017-Oct-17 14:25N 44°10' E 028°39'0 0.6
2017-Oct-17 14:00N 44°09' E 028°39'1 2.6
2017-Oct-17 13:30N 44°08' E 028°40'1 3.0
2017-Oct-17 13:00N 44°07' E 028°41'1 1.6
2017-Oct-17 12:30N 44°07' E 028°40'1 1.9
2017-Oct-17 11:59N 44°06' E 028°39'1 1.8
2017-Oct-17 11:31N 44°07' E 028°39'2 3.9
2017-Oct-17 11:00N 44°09' E 028°40'0 0.4
2017-Oct-17 10:30N 44°09' E 028°39'0 0.4
2017-Oct-17 10:00N 44°09' E 028°39'0 0.3
2017-Oct-17 09:28N 44°09' E 028°39'0 0.7
2017-Oct-17 09:01N 44°09' E 028°39'3 5.1
2017-Oct-17 08:31N 44°07' E 028°41'1 2.1
2017-Oct-17 07:57N 44°06' E 028°40'1 2.9
2017-Oct-17 07:29N 44°07' E 028°39'0 1.0
2017-Oct-17 07:00N 44°07' E 028°39'1 1.5
2017-Oct-17 06:30N 44°08' E 028°39'1 2.5
2017-Oct-17 06:00N 44°09' E 028°39'1 2.2
2017-Oct-17 05:30N 44°08' E 028°39'2 3.4
2017-Oct-17 05:00N 44°06' E 028°39'0 0.0
2017-Oct-17 04:30N 44°06' E 028°39'0 0.0
2017-Oct-17 04:00N 44°06' E 028°39'0 0.0
2017-Oct-17 03:15N 44°06' E 028°39'0 0.0
2017-Oct-17 03:00N 44°06' E 028°39'0 0.0
2017-Oct-17 02:30N 44°06' E 028°39'0 0.0
2017-Oct-17 02:00N 44°06' E 028°39'0 0.0
2017-Oct-17 01:30N 44°06' E 028°39'0 0.0
2017-Oct-17 01:00N 44°06' E 028°39'0 0.0
2017-Oct-17 00:30N 44°06' E 028°39'0 0.0
2017-Oct-17 00:00N 44°06' E 028°39'0 0.0
2017-Oct-16 23:30N 44°06' E 028°39'0 0.0
2017-Oct-16 23:00N 44°06' E 028°39'0 0.0
2017-Oct-16 22:30N 44°06' E 028°39'0 0.0
2017-Oct-16 22:00N 44°06' E 028°39'0 0.0
2017-Oct-16 21:30N 44°06' E 028°39'0 0.0
2017-Oct-16 21:00N 44°06' E 028°39'0 0.0
2017-Oct-16 20:30N 44°06' E 028°39'0 0.0
2017-Oct-16 20:00N 44°06' E 028°39'0 0.0
2017-Oct-16 19:30N 44°06' E 028°39'1 1.9
2017-Oct-16 19:00N 44°07' E 028°39'1 2.8
2017-Oct-16 18:30N 44°09' E 028°40'1 2.1
2017-Oct-16 18:00N 44°09' E 028°39'0 0.6
2017-Oct-16 17:28N 44°10' E 028°39'1 2.7
2017-Oct-16 17:00N 44°09' E 028°40'1 2.6
2017-Oct-16 16:29N 44°07' E 028°39'1 1.1
2017-Oct-16 15:59N 44°07' E 028°39'0 0.0
2017-Oct-16 15:29N 44°07' E 028°39'0 0.1
2017-Oct-16 15:00N 44°07' E 028°39'2 3.6
2017-Oct-16 14:30N 44°09' E 028°40'1 1.1
2017-Oct-16 13:30N 44°10' E 028°39'0 0.0
2017-Oct-16 13:00N 44°10' E 028°39'0 0.2
2017-Oct-16 12:29N 44°10' E 028°39'0 0.4
2017-Oct-16 11:59N 44°10' E 028°39'1 2.5
2017-Oct-16 11:30N 44°09' E 028°40'2 4.2
2017-Oct-16 11:00N 44°07' E 028°39'0 0.6
2017-Oct-16 10:30N 44°07' E 028°39'0 0.4
2017-Oct-16 09:58N 44°06' E 028°39'0 0.0
2017-Oct-16 09:25N 44°06' E 028°39'0 0.9
2017-Oct-16 09:00N 44°07' E 028°39'1 1.1
2017-Oct-16 08:30N 44°07' E 028°39'1 1.2
2017-Oct-16 08:00N 44°06' E 028°39'0 0.0
2017-Oct-16 07:30N 44°06' E 028°39'1 1.4
2017-Oct-16 07:00N 44°07' E 028°39'0 0.1
2017-Oct-16 06:30N 44°07' E 028°39'1 1.4
2017-Oct-16 05:59N 44°06' E 028°39'0 0.0
2017-Oct-16 05:30N 44°06' E 028°39'0 0.4
2017-Oct-16 05:00N 44°06' E 028°39'1 1.2
2017-Oct-16 04:25N 44°07' E 028°39'1 1.3
2017-Oct-16 04:00N 44°06' E 028°39'0 0.0
2017-Oct-16 03:30N 44°06' E 028°39'0 0.0
2017-Oct-16 03:00N 44°06' E 028°39'0 0.0
2017-Oct-16 02:30N 44°06' E 028°39'1 1.0
2017-Oct-16 01:59N 44°07' E 028°39'1 2.4
2017-Oct-16 01:30N 44°06' E 028°40'0 0.4
2017-Oct-16 00:58N 44°06' E 028°40'1 2.0
2017-Oct-16 00:30N 44°07' E 028°39'1 1.1
2017-Oct-16 00:00N 44°07' E 028°39'0 0.9
2017-Oct-15 23:31N 44°08' E 028°39'0 0.7
2017-Oct-15 23:00N 44°08' E 028°39'1 2.7
2017-Oct-15 22:29N 44°06' E 028°39'0 0.0
2017-Oct-15 21:59N 44°06' E 028°39'0 1.0
2017-Oct-15 21:30N 44°07' E 028°39'1 1.8
2017-Oct-15 21:00N 44°08' E 028°39'2 3.1
2017-Oct-15 20:30N 44°09' E 028°40'1 1.4
2017-Oct-15 19:58N 44°10' E 028°39'1 1.4
2017-Oct-15 19:29N 44°09' E 028°39'0 0.0
2017-Oct-15 18:59N 44°09' E 028°39'0 0.0
2017-Oct-15 18:26N 44°09' E 028°39'0 0.0
2017-Oct-15 17:59N 44°09' E 028°39'0 0.0
2017-Oct-15 17:29N 44°09' E 028°39'0 0.0
2017-Oct-15 16:59N 44°09' E 028°39'0 0.0
2017-Oct-15 16:29N 44°09' E 028°39'0 0.6
2017-Oct-15 16:00N 44°09' E 028°39'1 1.4
2017-Oct-15 15:30N 44°09' E 028°40'1 2.1
2017-Oct-15 15:00N 44°08' E 028°39'3 2.5
2017-Oct-15 13:58N 44°06' E 028°39'2 3.6
2017-Oct-15 13:30N 44°07' E 028°39'2 3.7
2017-Oct-15 13:01N 44°09' E 028°39'1 1.4
2017-Oct-15 12:31N 44°09' E 028°40'2 4.8
2017-Oct-15 12:01N 44°07' E 028°39'0 0.1
2017-Oct-15 11:30N 44°06' E 028°39'0 0.0
2017-Oct-15 11:00N 44°06' E 028°39'1 1.3
2017-Oct-15 10:31N 44°07' E 028°39'0 0.4
2017-Oct-15 10:00N 44°07' E 028°39'2 3.3
2017-Oct-15 09:30N 44°09' E 028°40'1 1.9
2017-Oct-15 08:59N 44°09' E 028°39'0 1.0
2017-Oct-15 08:30N 44°09' E 028°39'2 4.0
2017-Oct-15 08:00N 44°07' E 028°39'1 1.8
2017-Oct-15 07:30N 44°06' E 028°39'0 0.0
2017-Oct-15 06:58N 44°06' E 028°39'1 2.2
2017-Oct-15 06:30N 44°07' E 028°39'2 3.5
2017-Oct-15 05:59N 44°09' E 028°39'0 0.0
2017-Oct-15 05:29N 44°09' E 028°39'0 0.0
2017-Oct-15 04:59N 44°09' E 028°39'0 0.0
2017-Oct-15 04:29N 44°09' E 028°39'0 0.0
2017-Oct-15 03:59N 44°09' E 028°39'0 0.0
2017-Oct-15 03:29N 44°09' E 028°39'0 0.0
2017-Oct-15 02:59N 44°09' E 028°39'0 0.0
2017-Oct-15 02:29N 44°09' E 028°39'0 0.0
2017-Oct-15 01:59N 44°09' E 028°39'0 0.0
2017-Oct-15 01:29N 44°09' E 028°39'0 0.0
2017-Oct-15 00:59N 44°09' E 028°39'0 0.0
2017-Oct-15 00:29N 44°09' E 028°39'0 0.0
2017-Oct-14 23:59N 44°09' E 028°39'1 1.2
2017-Oct-14 23:29N 44°10' E 028°39'1 2.8
2017-Oct-14 23:00N 44°09' E 028°40'2 3.4
2017-Oct-14 22:30N 44°07' E 028°39'0 0.3
2017-Oct-14 22:00N 44°07' E 028°39'1 1.3
2017-Oct-14 21:30N 44°08' E 028°39'1 2.8
2017-Oct-14 21:00N 44°09' E 028°40'1 1.4
2017-Oct-14 20:30N 44°10' E 028°39'1 1.3
2017-Oct-14 19:56N 44°09' E 028°39'0 0.1
2017-Oct-14 19:30N 44°09' E 028°39'0 0.4
2017-Oct-14 19:00N 44°09' E 028°39'1 2.0
2017-Oct-14 18:30N 44°09' E 028°40'2 4.0
2017-Oct-14 17:58N 44°07' E 028°39'1 3.2
2017-Oct-14 17:30N 44°08' E 028°39'1 1.8
2017-Oct-14 17:00N 44°07' E 028°39'0 0.4
2017-Oct-14 16:28N 44°07' E 028°39'0 0.2
2017-Oct-14 15:58N 44°07' E 028°39'2 3.7
2017-Oct-14 15:30N 44°09' E 028°40'1 1.5
2017-Oct-14 14:58N 44°09' E 028°39'0 0.3
2017-Oct-14 14:30N 44°09' E 028°39'0 0.6
2017-Oct-14 14:00N 44°09' E 028°39'0 0.2
2017-Oct-14 13:30N 44°09' E 028°39'0 0.0
2017-Oct-14 13:00N 44°09' E 028°39'0 0.0
2017-Oct-14 12:27N 44°09' E 028°39'0 0.0
2017-Oct-14 12:00N 44°09' E 028°39'0 0.0
2017-Oct-14 11:27N 44°09' E 028°39'0 0.7
2017-Oct-14 10:58N 44°09' E 028°39'0 0.4
2017-Oct-14 10:29N 44°09' E 028°39'0 0.1
2017-Oct-14 10:00N 44°09' E 028°39'1 1.5
2017-Oct-14 09:30N 44°10' E 028°39'1 2.3
2017-Oct-14 09:00N 44°09' E 028°40'1 2.6
2017-Oct-14 08:29N 44°07' E 028°39'0 1.0
2017-Oct-14 08:00N 44°08' E 028°39'1 1.5
2017-Oct-14 07:30N 44°07' E 028°39'1 2.3
2017-Oct-14 07:00N 44°08' E 028°39'0 0.4
2017-Oct-14 06:30N 44°08' E 028°39'1 2.1
2017-Oct-14 06:00N 44°09' E 028°39'0 0.0
2017-Oct-14 05:30N 44°09' E 028°39'0 0.8
2017-Oct-14 04:55N 44°10' E 028°39'0 0.7
2017-Oct-14 04:14N 44°09' E 028°39'0 0.0
2017-Oct-14 03:59N 44°09' E 028°39'0 0.0
2017-Oct-14 03:29N 44°09' E 028°39'0 0.0
2017-Oct-14 02:59N 44°09' E 028°39'0 0.0
2017-Oct-14 02:29N 44°09' E 028°39'0 0.0
2017-Oct-14 02:00N 44°09' E 028°39'1 1.2
2017-Oct-14 01:29N 44°10' E 028°39'0 0.0
2017-Oct-14 00:59N 44°10' E 028°39'1 1.8
2017-Oct-14 00:30N 44°09' E 028°40'2 3.0
2017-Oct-14 00:00N 44°08' E 028°41'1 3.0
2017-Oct-13 23:30N 44°06' E 028°41'1 1.9
2017-Oct-13 23:00N 44°07' E 028°40'1 2.3
2017-Oct-13 22:30N 44°07' E 028°39'1 1.8
2017-Oct-13 22:00N 44°08' E 028°39'0 0.4
2017-Oct-13 21:30N 44°08' E 028°39'1 1.7
2017-Oct-13 21:00N 44°09' E 028°40'1 1.4
2017-Oct-13 20:27N 44°09' E 028°39'0 0.7
2017-Oct-13 20:00N 44°09' E 028°39'1 1.5
2017-Oct-13 19:29N 44°08' E 028°39'1 2.0
2017-Oct-13 19:00N 44°07' E 028°39'1 1.8
2017-Oct-13 18:30N 44°06' E 028°39'0 0.0
2017-Oct-13 18:00N 44°06' E 028°39'0 0.0
2017-Oct-13 17:30N 44°06' E 028°39'0 0.0
2017-Oct-13 17:00N 44°06' E 028°39'0 0.0
2017-Oct-13 16:30N 44°06' E 028°39'0 0.0
2017-Oct-13 16:00N 44°06' E 028°39'0 0.1
2017-Oct-13 15:28N 44°06' E 028°39'1 1.9
2017-Oct-13 15:00N 44°06' E 028°39'1 1.4
2017-Oct-13 14:30N 44°06' E 028°39'2 3.9
2017-Oct-13 14:00N 44°08' E 028°39'1 1.5
2017-Oct-13 13:30N 44°09' E 028°40'0 0.2
2017-Oct-13 13:00N 44°09' E 028°39'1 1.0
2017-Oct-13 12:30N 44°08' E 028°39'2 4.2
2017-Oct-13 11:58N 44°06' E 028°39'0 0.0
2017-Oct-13 11:30N 44°06' E 028°39'2 3.0
2017-Oct-13 11:00N 44°08' E 028°39'2 3.2
2017-Oct-13 10:30N 44°09' E 028°40'0 0.7
2017-Oct-13 10:00N 44°10' E 028°39'2 4.4
2017-Oct-13 09:30N 44°07' E 028°39'0 0.4
2017-Oct-13 09:01N 44°08' E 028°39'1 1.6
2017-Oct-13 08:29N 44°08' E 028°39'1 1.8
2017-Oct-13 08:00N 44°09' E 028°40'1 1.0
2017-Oct-13 07:28N 44°09' E 028°39'0 0.5
2017-Oct-13 06:59N 44°09' E 028°39'1 2.8
2017-Oct-13 06:30N 44°08' E 028°39'0 1.0
2017-Oct-13 06:00N 44°07' E 028°39'1 1.7
2017-Oct-13 05:29N 44°07' E 028°39'0 0.0
2017-Oct-13 04:53N 44°07' E 028°39'0 0.0
2017-Oct-13 04:26N 44°07' E 028°39'0 0.0
2017-Oct-13 03:56N 44°07' E 028°39'0 0.0
2017-Oct-13 03:26N 44°07' E 028°39'0 0.0
2017-Oct-13 02:59N 44°07' E 028°39'2 3.7
2017-Oct-13 02:29N 44°08' E 028°39'1 1.7
2017-Oct-13 02:00N 44°08' E 028°39'1 1.5
2017-Oct-13 01:30N 44°07' E 028°39'0 0.5
2017-Oct-13 01:00N 44°06' E 028°39'0 0.0
2017-Oct-13 00:29N 44°06' E 028°39'1 1.1
2017-Oct-13 00:00N 44°07' E 028°39'2 3.0
2017-Oct-12 23:30N 44°08' E 028°39'1 2.0
2017-Oct-12 23:00N 44°09' E 028°39'1 1.9
2017-Oct-12 22:30N 44°09' E 028°40'2 4.6
2017-Oct-12 21:59N 44°06' E 028°39'0 0.0
2017-Oct-12 21:29N 44°06' E 028°39'0 0.0
2017-Oct-12 20:56N 44°06' E 028°39'0 0.0
2017-Oct-12 20:29N 44°06' E 028°39'0 0.0
2017-Oct-12 19:56N 44°07' E 028°39'0 0.0
2017-Oct-12 19:28N 44°06' E 028°39'1 2.5
2017-Oct-12 18:58N 44°08' E 028°39'0 0.3
2017-Oct-12 18:29N 44°08' E 028°39'1 1.5
2017-Oct-12 18:00N 44°08' E 028°39'1 1.1
2017-Oct-12 17:30N 44°08' E 028°39'0 0.5
2017-Oct-12 16:58N 44°07' E 028°39'2 3.8
2017-Oct-12 16:30N 44°09' E 028°40'1 1.3
2017-Oct-12 15:57N 44°09' E 028°39'1 2.3
2017-Oct-12 15:30N 44°08' E 028°39'2 2.9
2017-Oct-12 14:58N 44°06' E 028°39'0 0.2
2017-Oct-12 14:28N 44°06' E 028°39'2 4.7
2017-Oct-12 14:00N 44°08' E 028°39'1 1.1
2017-Oct-12 13:30N 44°09' E 028°39'0 0.8
2017-Oct-12 12:59N 44°09' E 028°39'1 1.3
2017-Oct-12 12:30N 44°09' E 028°40'2 3.7
2017-Oct-12 11:54N 44°06' E 028°39'0 0.0
2017-Oct-12 11:30N 44°06' E 028°39'0 0.0
2017-Oct-12 10:57N 44°06' E 028°39'0 0.0
2017-Oct-12 10:30N 44°06' E 028°39'0 0.0
2017-Oct-12 10:00N 44°06' E 028°39'0 0.0
2017-Oct-12 09:30N 44°06' E 028°39'0 0.0
2017-Oct-12 09:00N 44°06' E 028°39'0 0.0
2017-Oct-12 08:30N 44°06' E 028°39'0 0.0
2017-Oct-12 08:00N 44°06' E 028°39'0 0.0
2017-Oct-12 07:30N 44°06' E 028°39'1 1.1
2017-Oct-12 07:00N 44°07' E 028°39'0 0.9
2017-Oct-12 06:28N 44°06' E 028°40'1 1.6
2017-Oct-12 06:00N 44°07' E 028°39'1 1.2
2017-Oct-12 05:30N 44°07' E 028°39'1 1.2
2017-Oct-12 05:00N 44°06' E 028°39'0 0.0
2017-Oct-12 04:30N 44°06' E 028°39'0 0.0
2017-Oct-12 04:00N 44°06' E 028°39'0 0.0
2017-Oct-12 03:30N 44°06' E 028°39'1 1.6
2017-Oct-12 02:58N 44°07' E 028°39'1 2.6
2017-Oct-12 02:30N 44°08' E 028°39'1 1.2
2017-Oct-12 02:00N 44°09' E 028°39'0 0.2
2017-Oct-12 01:30N 44°09' E 028°39'1 1.2
2017-Oct-12 00:58N 44°10' E 028°39'1 2.3
2017-Oct-12 00:30N 44°09' E 028°40'2 3.1
2017-Oct-12 00:00N 44°08' E 028°41'1 2.7
2017-Oct-11 23:30N 44°06' E 028°41'1 1.3
2017-Oct-11 22:59N 44°06' E 028°40'0 0.0
2017-Oct-11 22:29N 44°06' E 028°40'0 1.0
2017-Oct-11 22:00N 44°06' E 028°41'3 5.1
2017-Oct-11 21:30N 44°09' E 028°40'1 1.2
2017-Oct-11 20:59N 44°09' E 028°39'0 0.2
2017-Oct-11 20:29N 44°09' E 028°39'0 0.6
2017-Oct-11 19:58N 44°09' E 028°39'0 0.5
2017-Oct-11 19:30N 44°09' E 028°39'0 0.2
2017-Oct-11 19:00N 44°09' E 028°39'0 0.0
2017-Oct-11 18:30N 44°09' E 028°39'0 0.0
2017-Oct-11 18:00N 44°09' E 028°39'0 0.0
2017-Oct-11 17:30N 44°09' E 028°39'0 0.0
2017-Oct-11 17:00N 44°09' E 028°39'0 0.0
2017-Oct-10 23:59N 44°09' E 028°39'1 1.3
2017-Oct-10 23:29N 44°10' E 028°39'1 1.6
2017-Oct-10 23:00N 44°09' E 028°40'1 2.5
2017-Oct-10 22:30N 44°08' E 028°39'2 3.3
2017-Oct-10 22:00N 44°06' E 028°39'1 1.3
2017-Oct-10 21:30N 44°07' E 028°39'1 1.3
2017-Oct-10 21:00N 44°07' E 028°39'1 2.9
2017-Oct-10 20:30N 44°08' E 028°39'1 2.2
2017-Oct-10 20:00N 44°09' E 028°39'0 0.0
2017-Oct-10 19:30N 44°09' E 028°39'0 0.0
2017-Oct-10 19:00N 44°09' E 028°39'0 0.5
2017-Oct-10 18:30N 44°09' E 028°39'1 1.5
2017-Oct-10 18:00N 44°09' E 028°40'2 4.2
2017-Oct-10 17:31N 44°07' E 028°39'1 1.1
2017-Oct-10 17:00N 44°07' E 028°39'0 0.1
2017-Oct-10 16:30N 44°07' E 028°39'1 1.2
2017-Oct-10 16:00N 44°07' E 028°39'0 0.4
2017-Oct-10 15:30N 44°07' E 028°39'0 0.2
2017-Oct-10 15:00N 44°07' E 028°39'0 0.1
2017-Oct-10 14:00N 44°07' E 028°39'1 1.5
2017-Oct-10 13:30N 44°06' E 028°39'1 1.9
2017-Oct-10 13:00N 44°07' E 028°39'1 2.9
2017-Oct-10 12:30N 44°09' E 028°40'1 2.4
2017-Oct-10 12:01N 44°10' E 028°39'1 1.7
2017-Oct-10 11:30N 44°09' E 028°39'1 1.0
2017-Oct-10 11:00N 44°09' E 028°39'1 1.1
2017-Oct-10 10:30N 44°10' E 028°39'1 2.6
2017-Oct-10 10:00N 44°09' E 028°39'1 2.4
2017-Oct-10 09:31N 44°07' E 028°39'1 1.0
2017-Oct-10 08:58N 44°07' E 028°39'1 1.3
2017-Oct-10 08:30N 44°06' E 028°39'1 1.9
2017-Oct-10 07:59N 44°07' E 028°39'1 1.4
2017-Oct-10 07:30N 44°07' E 028°39'1 1.2
2017-Oct-10 07:00N 44°07' E 028°39'1 1.1
2017-Oct-10 06:30N 44°06' E 028°40'1 2.6
2017-Oct-10 06:00N 44°07' E 028°39'1 2.6
2017-Oct-10 05:29N 44°06' E 028°40'2 3.7
2017-Oct-10 05:00N 44°08' E 028°41'2 2.7
2017-Oct-10 04:27N 44°09' E 028°39'1 1.1
2017-Oct-10 04:00N 44°09' E 028°40'1 2.8
2017-Oct-10 03:30N 44°07' E 028°39'0 0.5
2017-Oct-10 02:59N 44°07' E 028°39'1 1.0
2017-Oct-10 02:29N 44°06' E 028°39'0 0.0
2017-Oct-10 01:59N 44°06' E 028°39'0 0.3
2017-Oct-10 01:30N 44°07' E 028°39'1 1.9
2017-Oct-10 01:00N 44°06' E 028°40'1 2.7
2017-Oct-10 00:30N 44°07' E 028°39'2 3.4
2017-Oct-10 00:00N 44°09' E 028°40'0 0.4
2017-Oct-09 23:29N 44°09' E 028°39'0 0.0
2017-Oct-09 23:00N 44°09' E 028°39'1 2.5
2017-Oct-09 22:30N 44°08' E 028°39'1 1.3
2017-Oct-09 22:00N 44°07' E 028°39'0 0.6
2017-Oct-09 21:28N 44°07' E 028°39'0 1.1
2017-Oct-09 21:01N 44°07' E 028°39'0 0.6
2017-Oct-09 20:30N 44°07' E 028°39'1 1.3
2017-Oct-09 20:00N 44°06' E 028°39'0 0.0
2017-Oct-09 19:30N 44°06' E 028°39'0 0.0
2017-Oct-09 19:00N 44°06' E 028°39'0 0.0
2017-Oct-09 18:27N 44°06' E 028°39'0 0.0
2017-Oct-09 18:00N 44°06' E 028°39'1 1.1
2017-Oct-09 17:30N 44°07' E 028°39'1 1.2
2017-Oct-09 17:00N 44°08' E 028°39'0 0.0
2017-Oct-09 16:30N 44°08' E 028°39'0 0.0
2017-Oct-09 16:00N 44°08' E 028°39'0 0.0
2017-Oct-09 15:30N 44°08' E 028°39'0 0.0
2017-Oct-09 15:00N 44°08' E 028°39'1 2.0
2017-Oct-09 14:26N 44°06' E 028°39'1 2.5
2017-Oct-09 14:00N 44°06' E 028°40'1 2.7
2017-Oct-09 13:30N 44°07' E 028°39'0 0.8
2017-Oct-09 13:00N 44°08' E 028°39'  

Dump ship's entire track history